Time;durP1;ratioP1;P1;durP2;ratioP2;P2;SDS_P1;SDS_P2;PMS_P1;PMS_P2;Temp;Humidity;BMP_temperature;BMP_pressure;BME280_temperature;BME280_humidity;BME280_pressure;Samples;Min_cycle;Max_cycle;Signal;HPM_P1;HPM_P2
2023/08/29 00:00:27;;;;;;;0.10;0.10;;;;;;;25.69;42.55;100089.25;4956562;28;20037;-94
2023/08/29 00:02:53;;;;;;;0.10;0.10;;;;;;;25.60;42.47;100080.59;4956703;28;20133;-93
2023/08/29 00:05:19;;;;;;;0.10;0.10;;;;;;;25.69;42.09;100073.38;4956690;28;20034;-92
2023/08/29 00:07:44;;;;;;;0.10;0.10;;;;;;;25.57;42.74;100066.91;4956110;28;20022;-93
2023/08/29 00:10:10;;;;;;;0.10;0.10;;;;;;;25.57;42.93;100069.56;4940504;28;20081;-92
2023/08/29 00:12:35;;;;;;;0.10;0.10;;;;;;;25.58;42.83;100076.50;4939973;28;20477;-93
2023/08/29 00:15:03;;;;;;;0.10;0.10;;;;;;;25.50;42.71;100072.13;4940334;28;21036;-94
2023/08/29 00:17:29;;;;;;;0.10;0.10;;;;;;;25.48;43.03;100066.19;4940809;28;20026;-93
2023/08/29 00:19:54;;;;;;;0.10;0.10;;;;;;;25.39;43.94;100062.00;4956006;28;20038;-93
2023/08/29 00:22:20;;;;;;;0.10;0.10;;;;;;;25.34;43.83;100075.78;4940000;28;20031;-93
2023/08/29 00:24:46;;;;;;;0.10;0.10;;;;;;;25.40;43.76;100069.75;4940721;28;20042;-92
2023/08/29 00:27:12;;;;;;;0.10;0.10;;;;;;;25.36;43.52;100072.94;4956422;28;20027;-93
2023/08/29 00:29:37;;;;;;;0.10;0.10;;;;;;;25.27;43.98;100072.25;4939991;28;20042;-93
2023/08/29 00:32:03;;;;;;;0.10;0.10;;;;;;;25.25;44.17;100076.88;4940232;28;20940;-92
2023/08/29 00:34:28;;;;;;;0.10;0.10;;;;;;;25.27;44.13;100074.91;4940761;28;20509;-93
2023/08/29 00:36:54;;;;;;;0.10;0.10;;;;;;;25.24;44.52;100080.53;4940388;28;20472;-94
2023/08/29 00:39:19;;;;;;;0.10;0.10;;;;;;;25.20;44.67;100073.97;4956121;28;20030;-93
2023/08/29 00:41:48;;;;;;;0.10;0.10;;;;;;;25.12;44.98;100071.41;4940072;28;20038;-92
2023/08/29 00:44:14;;;;;;;0.10;0.10;;;;;;;25.06;45.24;100083.53;4956639;28;20037;-92
2023/08/29 00:46:40;;;;;;;0.10;0.10;;;;;;;25.08;45.42;100096.63;4955881;28;20027;-94
2023/08/29 00:49:06;;;;;;;0.10;0.10;;;;;;;25.09;45.22;100088.50;4955644;28;20054;-94
2023/08/29 00:51:31;;;;;;;0.10;0.10;;;;;;;25.09;45.16;100079.72;4971693;28;20077;-93
2023/08/29 00:53:56;;;;;;;0.10;0.10;;;;;;;25.17;45.29;100079.63;4939549;28;20034;-93
2023/08/29 00:56:23;;;;;;;0.10;0.10;;;;;;;25.07;45.27;100079.06;4955491;28;20030;-93
2023/08/29 00:58:48;;;;;;;0.10;0.10;;;;;;;25.02;45.23;100076.97;4955923;28;20029;-92
2023/08/29 01:01:16;;;;;;;0.10;0.10;;;;;;;25.14;45.29;100098.50;4939962;28;20034;-92
2023/08/29 01:03:42;;;;;;;0.10;0.10;;;;;;;25.04;45.24;100068.84;4940668;28;20485;-93
2023/08/29 01:06:07;;;;;;;0.10;0.10;;;;;;;25.23;44.72;100084.19;4939620;28;20039;-92
2023/08/29 01:08:33;;;;;;;0.10;0.10;;;;;;;25.16;44.91;100068.22;4939691;28;20057;-93
2023/08/29 01:11:14;;;;;;;0.10;0.10;;;;;;;25.19;44.58;100069.69;4955747;28;20031;-94
2023/08/29 01:14:33;;;;;;;0.10;0.10;;;;;;;25.13;44.75;100073.88;4939568;28;20030;-92
2023/08/29 01:17:08;;;;;;;0.10;0.10;;;;;;;25.10;44.69;100065.50;4913375;29;20503;-93
2023/08/29 01:19:35;;;;;;;0.10;0.10;;;;;;;24.93;44.95;100051.56;4969688;28;20175;-92
2023/08/29 01:22:14;;;;;;;0.10;0.10;;;;;;;24.94;45.23;100053.22;4939897;28;20034;-93
2023/08/29 01:24:45;;;;;;;0.10;0.10;;;;;;;25.01;45.05;100069.19;4956288;28;20061;-94
2023/08/29 01:27:10;;;;;;;0.10;0.10;;;;;;;24.81;45.69;100069.72;4944091;28;20038;-92
2023/08/29 01:29:36;;;;;;;0.10;0.10;;;;;;;24.96;45.30;100082.94;4943455;28;20081;-92
2023/08/29 01:32:01;;;;;;;0.10;0.10;;;;;;;24.85;45.67;100088.69;4959623;28;20034;-93
2023/08/29 01:34:27;;;;;;;0.10;0.10;;;;;;;24.91;45.84;100077.41;4959232;28;20602;-92
2023/08/29 01:36:52;;;;;;;0.10;0.10;;;;;;;24.86;45.57;100075.28;4943127;28;20034;-92
2023/08/29 01:39:18;;;;;;;0.10;0.10;;;;;;;24.80;45.39;100067.25;4943248;28;21876;-93
2023/08/29 01:41:44;;;;;;;0.10;0.10;;;;;;;24.77;45.18;100057.84;4943117;28;20035;-93
2023/08/29 01:44:09;;;;;;;0.10;0.10;;;;;;;24.83;45.04;100065.06;4959112;28;20089;-93
2023/08/29 01:46:37;;;;;;;0.10;0.10;;;;;;;24.84;45.52;100069.34;4943115;28;20489;-93
2023/08/29 01:49:02;;;;;;;0.10;0.10;;;;;;;24.76;45.76;100056.19;4959189;28;20113;-93
2023/08/29 01:51:28;;;;;;;0.10;0.10;;;;;;;24.80;45.66;100060.16;4959002;28;20057;-92
2023/08/29 01:53:53;;;;;;;0.10;0.10;;;;;;;24.77;45.50;100055.19;4942891;28;20062;-93
2023/08/29 01:56:19;;;;;;;0.10;0.10;;;;;;;24.51;45.63;100025.72;4942784;28;20034;-92
2023/08/29 01:58:45;;;;;;;0.10;0.10;;;;;;;24.71;45.94;100049.81;4943057;28;20033;-91
2023/08/29 02:01:10;;;;;;;0.10;0.10;;;;;;;24.49;46.29;100033.84;4958800;28;20038;-93
2023/08/29 02:03:36;;;;;;;0.10;0.10;;;;;;;24.50;46.30;100051.34;4942664;28;20037;-92
2023/08/29 02:06:01;;;;;;;0.10;0.10;;;;;;;24.50;46.33;100051.34;4942677;28;20031;-92
2023/08/29 02:08:27;;;;;;;0.10;0.10;;;;;;;24.47;46.35;100053.50;4942720;28;20035;-91
2023/08/29 02:10:53;;;;;;;0.10;0.10;;;;;;;24.52;46.16;100054.63;4958700;28;20034;-93
2023/08/29 02:13:18;;;;;;;0.10;0.10;;;;;;;24.42;46.61;100059.34;4942448;28;20034;-93
2023/08/29 02:15:43;;;;;;;0.10;0.10;;;;;;;24.37;46.59;100052.94;4942804;28;20042;-94
2023/08/29 02:18:09;;;;;;;0.10;0.10;;;;;;;24.39;46.36;100049.13;4942162;28;20117;-94
2023/08/29 02:20:36;;;;;;;0.10;0.10;;;;;;;24.27;46.51;100046.03;4942346;28;20417;-95
2023/08/29 02:23:01;;;;;;;0.10;0.10;;;;;;;24.41;46.44;100067.47;4942293;28;20510;-93
2023/08/29 02:25:27;;;;;;;0.10;0.10;;;;;;;24.42;46.67;100066.44;4958373;28;20027;-94
2023/08/29 02:27:52;;;;;;;0.10;0.10;;;;;;;24.49;46.55;100062.09;4942373;28;20030;-92
2023/08/29 02:30:18;;;;;;;0.10;0.10;;;;;;;24.43;46.48;100050.41;4958352;28;20034;-93
2023/08/29 02:32:45;;;;;;;0.10;0.10;;;;;;;24.47;46.88;100066.72;4973950;28;20102;-92
2023/08/29 02:35:10;;;;;;;0.10;0.10;;;;;;;24.37;47.24;100060.84;4958220;28;20038;-94
2023/08/29 02:37:36;;;;;;;0.10;0.10;;;;;;;24.29;47.54;100065.22;4942091;28;20035;-91
2023/08/29 02:40:04;;;;;;;0.10;0.10;;;;;;;24.31;47.31;100063.22;4958189;28;20031;-92
2023/08/29 02:42:30;;;;;;;0.10;0.10;;;;;;;24.25;47.63;100079.75;4958794;28;20023;-91
2023/08/29 02:44:56;;;;;;;0.10;0.10;;;;;;;24.14;47.94;100074.88;4942150;28;20057;-94
2023/08/29 02:47:22;;;;;;;0.10;0.10;;;;;;;24.03;48.00;100067.38;4941607;28;20481;-92
2023/08/29 02:49:47;;;;;;;0.10;0.10;;;;;;;24.05;47.64;100060.09;4942019;28;20105;-92
2023/08/29 02:52:12;;;;;;;0.10;0.10;;;;;;;24.00;48.09;100065.09;4942154;28;20046;-93
2023/08/29 02:54:38;;;;;;;0.10;0.10;;;;;;;23.97;48.21;100066.25;4941914;28;20042;-93
2023/08/29 02:57:03;;;;;;;0.10;0.10;;;;;;;23.94;48.16;100065.78;4942006;28;20041;-92
2023/08/29 02:59:29;;;;;;;0.10;0.10;;;;;;;23.85;48.13;100064.19;4957877;28;20415;-92
2023/08/29 03:01:54;;;;;;;0.10;0.10;;;;;;;23.75;49.03;100062.56;4942696;28;20119;-92
2023/08/29 03:04:20;;;;;;;0.10;0.10;;;;;;;23.78;48.71;100055.28;4962326;28;20397;-93
2023/08/29 03:06:46;;;;;;;0.10;0.10;;;;;;;23.94;51.14;100063.13;4975260;28;20035;-92
2023/08/29 03:09:12;;;;;;;0.10;0.10;;;;;;;23.91;49.46;100055.56;4969259;28;20050;-92
2023/08/29 03:11:37;;;;;;;0.10;0.10;;;;;;;24.15;50.87;100055.38;4957708;28;20034;-95
2023/08/29 03:14:03;;;;;;;0.10;0.10;;;;;;;24.16;50.05;100049.09;4941936;28;20042;-92
2023/08/29 03:16:29;;;;;;;0.10;0.10;;;;;;;24.46;50.33;100059.78;4941622;28;20062;-93
2023/08/29 03:18:55;;;;;;;0.10;0.10;;;;;;;24.57;47.44;100062.00;4957464;28;20050;-92
2023/08/29 03:21:21;;;;;;;0.10;0.10;;;;;;;24.40;48.06;100045.47;4941876;28;20062;-93
2023/08/29 03:23:46;;;;;;;0.10;0.10;;;;;;;24.60;47.61;100061.66;4941404;28;20198;-94
2023/08/29 03:26:12;;;;;;;0.10;0.10;;;;;;;24.60;47.48;100070.41;4957154;28;20162;-92
2023/08/29 03:28:37;;;;;;;0.20;0.20;;;;;;;24.49;47.90;100070.84;4941391;28;20026;-92
2023/08/29 03:31:10;;;;;;;0.20;0.20;;;;;;;24.25;48.66;100065.72;4941087;28;20508;-94
2023/08/29 03:33:36;;;;;;;0.20;0.20;;;;;;;24.25;48.76;100068.38;4957352;28;20031;-95
2023/08/29 03:36:02;;;;;;;0.20;0.20;;;;;;;24.11;48.93;100077.06;4941346;28;20406;-92
2023/08/29 03:38:28;;;;;;;0.20;0.20;;;;;;;24.11;48.63;100069.13;4941967;28;20031;-93
2023/08/29 03:40:57;;;;;;;0.10;0.10;;;;;;;24.20;48.68;100071.53;4941297;28;20520;-92
2023/08/29 03:43:23;;;;;;;0.10;0.10;;;;;;;24.24;48.37;100056.16;4941298;28;20476;-93
2023/08/29 03:45:58;;;;;;;0.10;0.10;;;;;;;24.27;48.94;100061.06;4941023;28;20033;-90
2023/08/29 03:48:23;;;;;;;0.20;0.20;;;;;;;24.46;48.14;100057.16;4923069;29;20113;-90
2023/08/29 03:50:49;;;;;;;0.10;0.10;;;;;;;24.74;48.04;100041.53;4937067;29;20034;-90
2023/08/29 03:53:14;;;;;;;0.10;0.10;;;;;;;24.83;46.54;100020.09;4952599;29;20041;-89
2023/08/29 03:55:40;;;;;;;0.10;0.10;;;;;;;24.73;46.55;100010.78;4936381;29;20429;-90
2023/08/29 03:58:06;;;;;;;0.20;0.20;;;;;;;25.07;46.47;100032.28;4936329;29;20034;-89
2023/08/29 04:00:32;;;;;;;0.10;0.10;;;;;;;25.01;46.28;100019.75;4935934;29;20027;-89
2023/08/29 04:02:59;;;;;;;0.10;0.10;;;;;;;25.15;45.99;100029.50;4952120;29;20404;-89
2023/08/29 04:05:25;;;;;;;0.10;0.10;;;;;;;25.13;47.36;100012.19;4950231;28;20030;-90
2023/08/29 04:07:50;;;;;;;0.10;0.10;;;;;;;25.13;47.15;100030.72;4936066;28;20101;-90
2023/08/29 04:10:16;;;;;;;0.10;0.10;;;;;;;25.25;46.12;100029.22;4954155;28;20394;-90
2023/08/29 04:12:42;;;;;;;0.10;0.10;;;;;;;25.15;45.90;100023.41;4961897;28;20477;-90
2023/08/29 04:15:08;;;;;;;0.10;0.10;;;;;;;25.21;46.02;100030.63;4975155;28;20164;-91
2023/08/29 04:17:33;;;;;;;0.10;0.10;;;;;;;25.55;44.75;100029.19;4962407;28;20027;-92
2023/08/29 04:20:00;;;;;;;0.10;0.10;;;;;;;25.72;44.82;100034.09;4973471;28;20026;-92
2023/08/29 04:22:25;;;;;;;0.10;0.10;;;;;;;25.73;44.77;100038.38;4960342;28;20026;-93
2023/08/29 04:24:51;;;;;;;0.10;0.10;;;;;;;25.60;44.12;100046.16;4975966;28;20026;-93
2023/08/29 04:27:16;;;;;;;0.10;0.10;;;;;;;25.36;44.91;100031.41;4949246;28;20069;-93
2023/08/29 04:29:43;;;;;;;0.10;0.10;;;;;;;25.04;45.64;100050.31;4972199;28;20066;-93
2023/08/29 04:32:08;;;;;;;0.10;0.10;;;;;;;24.84;45.85;100048.19;4942626;28;20026;-90
2023/08/29 04:34:36;;;;;;;0.10;0.10;;;;;;;24.91;46.79;100060.72;4945275;28;20030;-91
2023/08/29 04:37:04;;;;;;;0.20;0.20;;;;;;;25.07;47.32;100047.31;4974523;28;20396;-86
2023/08/29 04:39:29;;;;;;;0.10;0.10;;;;;;;25.33;46.71;100062.72;4985097;28;20085;-88
2023/08/29 04:41:55;;;;;;;0.10;0.10;;;;;;;25.49;46.62;100054.59;4958489;28;20038;-92
2023/08/29 04:44:21;;;;;;;0.10;0.10;;;;;;;25.27;45.12;100043.13;4942417;28;20448;-86
2023/08/29 04:46:46;;;;;;;0.10;0.10;;;;;;;24.97;46.02;100047.53;4960531;28;20563;-92
2023/08/29 04:49:12;;;;;;;0.15;0.15;;;;;;;24.82;46.73;100055.50;4938449;28;20026;-91
2023/08/29 04:51:37;;;;;;;0.15;0.15;;;;;;;24.62;47.07;100064.94;4941206;28;20038;-94
2023/08/29 04:54:03;;;;;;;0.10;0.10;;;;;;;24.66;48.41;100054.81;4956086;28;20085;-88
2023/08/29 04:56:28;;;;;;;0.10;0.10;;;;;;;24.99;47.76;100039.47;4955631;28;20026;-89
2023/08/29 04:58:54;;;;;;;0.10;0.10;;;;;;;25.31;47.42;100044.38;4979941;28;20023;-92
2023/08/29 05:01:19;;;;;;;0.10;0.10;;;;;;;25.48;45.96;100052.13;4996299;28;20035;-89
2023/08/29 05:03:45;;;;;;;0.10;0.10;;;;;;;25.19;45.85;100059.09;4984242;28;20034;-87
2023/08/29 05:06:10;;;;;;;0.10;0.10;;;;;;;24.82;47.69;100046.75;4960401;28;20034;-91
2023/08/29 05:08:36;;;;;;;0.20;0.20;;;;;;;24.76;47.24;100072.06;4983599;28;20112;-85
2023/08/29 05:11:02;;;;;;;0.10;0.10;;;;;;;24.54;47.60;100062.38;4975935;28;20022;-89
2023/08/29 05:13:27;;;;;;;0.10;0.10;;;;;;;24.49;47.78;100076.16;4975512;28;20065;-90
2023/08/29 05:15:53;;;;;;;0.10;0.10;;;;;;;24.48;48.89;100068.38;4964114;28;20038;-84
2023/08/29 05:18:18;;;;;;;0.10;0.10;;;;;;;24.51;47.54;100075.97;4980269;28;20047;-91
2023/08/29 05:20:44;;;;;;;0.10;0.10;;;;;;;24.48;47.94;100085.06;4959686;28;20023;-91
2023/08/29 05:23:09;;;;;;;0.10;0.10;;;;;;;24.63;47.48;100103.63;4977361;28;20026;-92
2023/08/29 05:25:35;;;;;;;0.10;0.10;;;;;;;24.70;48.92;100090.50;4961006;28;20084;-92
2023/08/29 05:28:00;;;;;;;0.10;0.10;;;;;;;24.85;48.91;100080.75;4978660;28;20031;-92
2023/08/29 05:30:25;;;;;;;0.17;0.17;;;;;;;25.29;47.67;100096.69;4994481;28;20416;-90
2023/08/29 05:32:53;;;;;;;0.15;0.15;;;;;;;25.25;47.21;100102.53;4967760;28;20081;-92
2023/08/29 05:35:18;;;;;;;0.10;0.10;;;;;;;25.30;48.92;100116.06;4967199;28;20054;-92
2023/08/29 05:37:43;;;;;;;0.20;0.20;;;;;;;25.33;47.64;100100.63;4969035;28;20489;-88
2023/08/29 05:40:10;;;;;;;0.20;0.20;;;;;;;25.44;48.34;100116.03;4963619;28;20454;-90
2023/08/29 05:42:35;;;;;;;0.20;0.20;;;;;;;25.50;48.01;100106.56;4946241;28;20045;-92
2023/08/29 05:45:01;;;;;;;0.10;0.10;;;;;;;25.69;46.98;100094.56;4969919;28;20493;-86
2023/08/29 05:47:27;;;;;;;0.10;0.10;;;;;;;25.91;46.63;100114.81;4924844;28;20130;-92
2023/08/29 05:49:52;;;;;;;0.10;0.10;;;;;;;25.96;46.05;100108.97;4966988;28;20097;-91
2023/08/29 05:52:18;;;;;;;0.10;0.10;;;;;;;25.88;45.28;100119.69;4980429;28;20034;-89
2023/08/29 05:54:43;;;;;;;0.10;0.10;;;;;;;26.08;46.52;100111.94;4990399;28;20041;-86
2023/08/29 05:57:09;;;;;;;0.10;0.10;;;;;;;26.05;45.01;100115.75;4965402;28;20041;-89
2023/08/29 05:59:34;;;;;;;0.10;0.10;;;;;;;26.02;44.24;100110.84;4953251;28;20041;-90
2023/08/29 06:02:00;;;;;;;0.10;0.10;;;;;;;26.06;45.24;100119.28;4963117;28;20023;-91
2023/08/29 06:04:25;;;;;;;0.10;0.10;;;;;;;26.13;46.48;100104.22;4945450;28;20082;-90
2023/08/29 06:06:51;;;;;;;0.10;0.10;;;;;;;26.24;44.11;100115.16;4950153;28;20023;-87
2023/08/29 06:09:17;;;;;;;0.10;0.10;;;;;;;26.31;44.26;100109.91;4981204;28;20069;-92
2023/08/29 06:11:43;;;;;;;0.10;0.10;;;;;;;26.35;44.45;100119.16;4955893;28;20030;-87
2023/08/29 06:14:11;;;;;;;0.10;0.10;;;;;;;26.32;43.68;100106.25;4977325;28;20041;-94
2023/08/29 06:16:36;;;;;;;0.10;0.10;;;;;;;26.44;43.49;100118.03;4975583;28;20530;-87
2023/08/29 06:19:02;;;;;;;0.10;0.10;;;;;;;26.56;43.72;100121.81;4958236;28;20047;-90
2023/08/29 06:21:27;;;;;;;0.20;0.20;;;;;;;26.53;42.93;100116.88;4963207;28;20490;-91
2023/08/29 06:23:53;;;;;;;0.20;0.20;;;;;;;26.49;45.29;100110.34;4945061;28;20031;-93
2023/08/29 06:26:18;;;;;;;0.13;0.13;;;;;;;26.63;44.92;100118.38;4957616;28;20042;-88
2023/08/29 06:28:44;;;;;;;0.20;0.20;;;;;;;26.53;42.16;100092.19;4965157;28;20037;-88
2023/08/29 06:31:12;;;;;;;0.10;0.10;;;;;;;26.61;43.40;100105.31;4980144;28;20027;-92
2023/08/29 06:33:38;;;;;;;0.20;0.20;;;;;;;26.71;42.78;100128.88;4966070;28;20067;-87
2023/08/29 06:36:27;;;;;;;0.20;0.20;;;;;;;26.80;41.85;100138.34;4957897;28;20033;-93
2023/08/29 06:38:53;;;;;;;0.10;0.10;;;;;;;26.87;42.47;100129.41;4959695;28;20037;-91
2023/08/29 06:41:19;;;;;;;0.10;0.10;;;;;;;26.99;42.35;100135.00;4950422;28;20033;-90
2023/08/29 06:43:46;;;;;;;0.20;0.20;;;;;;;27.07;41.60;100126.94;4958719;28;20039;-91
2023/08/29 06:46:12;;;;;;;0.20;0.20;;;;;;;27.17;42.13;100110.66;4975309;28;20037;-90
2023/08/29 06:48:38;;;;;;;0.20;0.20;;;;;;;27.27;40.93;100119.09;4963917;28;20105;-90
2023/08/29 06:51:03;;;;;;;0.10;0.10;;;;;;;27.29;42.14;100126.84;4974869;28;20031;-93
2023/08/29 06:53:29;;;;;;;0.10;0.10;;;;;;;27.22;41.86;100128.66;4945613;28;20122;-95
2023/08/29 06:55:54;;;;;;;0.20;0.20;;;;;;;27.30;42.27;100124.00;4956146;28;20039;-86
2023/08/29 06:58:20;;;;;;;0.20;0.20;;;;;;;27.35;40.84;100118.13;4969232;28;20030;-87
2023/08/29 07:00:48;;;;;;;0.10;0.10;;;;;;;27.27;41.08;100105.81;4972995;28;20023;-92
2023/08/29 07:03:14;;;;;;;0.20;0.20;;;;;;;27.39;41.57;100114.84;4942302;28;20170;-89
2023/08/29 07:05:39;;;;;;;0.10;0.10;;;;;;;27.41;41.49;100112.81;4975497;28;20452;-94
2023/08/29 07:08:06;;;;;;;0.10;0.10;;;;;;;27.50;42.75;100128.59;4972713;28;20030;-87
2023/08/29 07:10:32;;;;;;;0.20;0.20;;;;;;;27.57;41.80;100110.88;4963628;28;20026;-86
2023/08/29 07:12:57;;;;;;;0.20;0.20;;;;;;;27.87;42.32;100106.09;4980325;28;20496;-89
2023/08/29 07:15:23;;;;;;;0.10;0.10;;;;;;;27.79;39.94;100090.31;4983855;28;20070;-85
2023/08/29 07:17:49;;;;;;;0.10;0.10;;;;;;;27.93;40.10;100102.66;4975212;28;20067;-90
2023/08/29 07:20:15;;;;;;;0.10;0.10;;;;;;;27.93;40.45;100105.31;4971494;28;20546;-88
2023/08/29 07:22:43;;;;;;;0.20;0.20;;;;;;;28.07;40.39;100104.31;4958742;28;20023;-89
2023/08/29 07:25:08;;;;;;;0.13;0.13;;;;;;;28.15;40.24;100130.72;4953282;28;20089;-93
2023/08/29 07:27:35;;;;;;;0.20;0.20;;;;;;;28.15;40.40;100125.41;4975370;28;20444;-91
2023/08/29 07:30:00;;;;;;;0.20;0.20;;;;;;;28.33;39.14;100132.00;4988880;28;20109;-91
2023/08/29 07:32:26;;;;;;;0.20;0.20;;;;;;;28.26;39.10;100116.81;4947568;28;20034;-90
2023/08/29 07:34:51;;;;;;;0.20;0.20;;;;;;;28.49;38.80;100148.38;4964277;28;20023;-89
2023/08/29 07:37:17;;;;;;;0.20;0.20;;;;;;;28.39;38.42;100120.53;4977827;28;20062;-91
2023/08/29 07:39:43;;;;;;;0.20;0.20;;;;;;;28.55;40.18;100152.09;4975071;28;20030;-87
2023/08/29 07:42:08;;;;;;;0.10;0.10;;;;;;;28.59;38.38;100155.97;4984473;28;20038;-93
2023/08/29 07:44:34;;;;;;;0.20;0.20;;;;;;;28.56;39.68;100149.22;4953002;28;20484;-89
2023/08/29 07:46:59;;;;;;;0.20;0.20;;;;;;;28.74;39.46;100142.47;4926355;28;20034;-94
2023/08/29 07:49:25;;;;;;;0.20;0.20;;;;;;;28.73;37.55;100127.53;4943756;28;20031;-91
2023/08/29 07:51:52;;;;;;;0.20;0.20;;;;;;;28.71;37.46;100129.56;4968199;28;20030;-90
2023/08/29 07:54:18;;;;;;;0.20;0.20;;;;;;;28.72;38.48;100145.34;4975492;28;20513;-86
2023/08/29 07:56:43;;;;;;;0.10;0.10;;;;;;;28.73;38.78;100157.63;4951503;28;20401;-92
2023/08/29 07:59:09;;;;;;;0.20;0.20;;;;;;;28.90;37.52;100175.88;4953758;28;20075;-92
2023/08/29 08:01:35;;;;;;;0.20;0.20;;;;;;;28.86;38.32;100165.59;4946273;28;20472;-94
2023/08/29 08:04:01;;;;;;;0.20;0.20;;;;;;;28.81;38.22;100149.44;4957530;28;20026;-92
2023/08/29 08:06:28;;;;;;;0.20;0.20;;;;;;;28.89;36.96;100159.06;4958084;28;20035;-89
2023/08/29 08:08:54;;;;;;;0.10;0.10;;;;;;;28.70;38.16;100117.28;4956199;28;20117;-85
2023/08/29 08:11:23;;;;;;;0.20;0.20;;;;;;;28.91;38.16;100154.38;4985849;28;20432;-90
2023/08/29 08:13:48;;;;;;;0.20;0.20;;;;;;;28.96;37.84;100169.72;4981286;28;20396;-89
2023/08/29 08:16:14;;;;;;;0.10;0.10;;;;;;;28.79;38.33;100148.81;4955162;28;20481;-86
2023/08/29 08:18:40;;;;;;;0.20;0.20;;;;;;;28.84;38.35;100167.66;4962620;28;20050;-92
2023/08/29 08:21:05;;;;;;;0.20;0.20;;;;;;;28.68;38.91;100162.72;4943553;29;20047;-92
2023/08/29 08:23:31;;;;;;;0.10;0.10;;;;;;;28.50;40.49;100131.38;4980473;28;20018;-93
2023/08/29 08:25:56;;;;;;;0.10;0.10;;;;;;;28.46;40.63;100137.34;4990086;28;20035;-90
2023/08/29 08:28:22;;;;;;;0.20;0.20;;;;;;;28.60;40.50;100170.09;4951762;28;20030;-91
2023/08/29 08:30:48;;;;;;;0.20;0.20;;;;;;;28.50;41.18;100157.19;4957409;28;20034;-93
2023/08/29 08:33:13;;;;;;;0.10;0.10;;;;;;;28.50;41.44;100165.16;4983028;28;20417;-93
2023/08/29 08:35:39;;;;;;;0.20;0.20;;;;;;;28.46;42.26;100170.09;4959783;28;20037;-93
2023/08/29 08:38:07;;;;;;;0.20;0.20;;;;;;;28.25;43.20;100173.69;4983192;28;20539;-93
2023/08/29 08:40:34;;;;;;;0.20;0.20;;;;;;;28.21;43.46;100171.63;4991151;28;20089;-91
2023/08/29 08:43:02;;;;;;;0.10;0.10;;;;;;;28.29;43.58;100166.16;4973760;28;20038;-93
2023/08/29 08:45:27;;;;;;;0.20;0.20;;;;;;;28.26;44.63;100131.97;4970894;28;20034;-90
2023/08/29 08:47:53;;;;;;;0.10;0.10;;;;;;;28.13;48.38;100116.00;4947920;28;20435;-93
2023/08/29 08:50:18;;;;;;;0.20;0.20;;;;;;;28.18;50.28;100156.91;4961620;28;20034;-92
2023/08/29 08:52:44;;;;;;;0.20;0.20;;;;;;;27.67;50.88;100145.88;4958025;28;20030;-92
2023/08/29 08:55:10;;;;;;;0.10;0.10;;;;;;;27.55;52.45;100156.22;4967019;28;20027;-91
2023/08/29 08:57:36;;;;;;;0.20;0.20;;;;;;;27.25;53.77;100142.38;4943188;28;20030;-95
2023/08/29 09:00:02;;;;;;;0.10;0.10;;;;;;;26.98;56.12;100141.34;4956767;28;20446;-92
2023/08/29 09:02:28;;;;;;;0.20;0.20;;;;;;;26.97;56.45;100145.00;4970702;28;20517;-89
2023/08/29 09:04:53;;;;;;;0.10;0.10;;;;;;;27.15;56.24;100142.72;4951643;28;20027;-92
2023/08/29 09:07:19;;;;;;;0.13;0.13;;;;;;;27.26;56.92;100161.78;4976458;28;20038;-89
2023/08/29 09:10:04;;;;;;;0.10;0.10;;;;;;;27.40;58.32;100168.81;4954411;28;20067;-91
2023/08/29 09:12:30;;;;;;;0.20;0.20;;;;;;;27.03;59.19;100164.66;4935417;28;20038;-87
2023/08/29 09:14:55;;;;;;;0.10;0.10;;;;;;;26.77;58.56;100150.16;4976379;28;20031;-88
2023/08/29 09:17:21;;;;;;;0.10;0.10;;;;;;;26.70;58.89;100143.97;4968607;28;20042;-92
2023/08/29 09:19:47;;;;;;;0.10;0.10;;;;;;;26.56;60.11;100139.56;4969915;28;20055;-89
2023/08/29 09:22:12;;;;;;;0.20;0.20;;;;;;;26.56;59.22;100142.22;4958362;28;20097;-88
2023/08/29 09:24:38;;;;;;;0.10;0.10;;;;;;;26.34;57.97;100136.06;4986353;28;20034;-89
2023/08/29 09:27:09;;;;;;;0.10;0.10;;;;;;;26.37;59.79;100135.72;4981494;28;20532;-88
2023/08/29 09:29:35;;;;;;;0.10;0.10;;;;;;;26.65;60.35;100127.00;4955140;28;20050;-86
2023/08/29 09:32:11;;;;;;;0.10;0.10;;;;;;;26.55;59.87;100116.72;4963509;28;20131;-88
2023/08/29 09:34:36;;;;;;;0.10;0.10;;;;;;;26.74;59.41;100118.69;4951714;28;20019;-92
2023/08/29 09:37:03;;;;;;;0.10;0.10;;;;;;;26.62;60.31;100100.84;4965558;28;20424;-90
2023/08/29 09:39:28;;;;;;;0.20;0.20;;;;;;;27.05;59.73;100117.53;4953540;28;20023;-93
2023/08/29 09:42:01;;;;;;;0.10;0.10;;;;;;;27.30;58.29;100115.22;4959061;28;20038;-92
2023/08/29 09:44:27;;;;;;;0.20;0.20;;;;;;;27.47;57.18;100126.34;4973343;28;20022;-91
2023/08/29 09:46:53;;;;;;;0.20;0.20;;;;;;;27.57;57.12;100129.47;4971249;28;20022;-86
2023/08/29 09:49:18;;;;;;;0.10;0.10;;;;;;;27.29;55.16;100140.94;4959035;28;20061;-91
2023/08/29 09:51:44;;;;;;;0.10;0.10;;;;;;;27.46;55.41;100152.09;4987725;28;20038;-93
2023/08/29 09:54:09;;;;;;;0.20;0.20;;;;;;;27.43;57.31;100147.16;4969520;28;20675;-92
2023/08/29 09:56:37;;;;;;;0.10;0.10;;;;;;;27.51;57.45;100135.53;4964554;28;20039;-94
2023/08/29 09:59:03;;;;;;;0.10;0.10;;;;;;;27.78;54.37;100147.97;4959538;28;20090;-93
2023/08/29 10:01:29;;;;;;;0.20;0.20;;;;;;;27.77;54.13;100138.38;4950447;28;20046;-89
2023/08/29 10:03:55;;;;;;;0.17;0.17;;;;;;;27.60;54.20;100124.56;4985360;28;20026;-88
2023/08/29 10:06:20;;;;;;;0.10;0.10;;;;;;;27.77;54.48;100129.56;4966755;28;20034;-88
2023/08/29 10:08:52;;;;;;;0.20;0.20;;;;;;;27.78;53.92;100131.22;4971539;28;20090;-88
2023/08/29 10:11:18;;;;;;;0.10;0.10;;;;;;;27.86;53.47;100125.72;4967374;28;20030;-92
2023/08/29 10:13:44;;;;;;;0.10;0.10;;;;;;;27.88;54.05;100115.69;4972483;28;20030;-91
2023/08/29 10:16:09;;;;;;;0.20;0.20;;;;;;;27.83;52.85;100108.34;4962615;28;20042;-87
2023/08/29 10:18:35;;;;;;;0.20;0.20;;;;;;;27.95;53.58;100120.03;4965424;28;20059;-92
2023/08/29 10:21:01;;;;;;;0.10;0.10;;;;;;;27.98;52.51;100108.16;4945668;28;20054;-88
2023/08/29 10:23:26;;;;;;;0.10;0.10;;;;;;;27.95;53.73;100101.41;4972358;28;20486;-86
2023/08/29 10:25:52;;;;;;;0.20;0.20;;;;;;;28.35;52.09;100106.03;4943396;28;20129;-88
2023/08/29 10:28:17;;;;;;;0.20;0.20;;;;;;;28.49;52.18;100089.03;4975606;28;20396;-85
2023/08/29 10:30:44;;;;;;;0.10;0.10;;;;;;;28.95;50.83;100093.53;4966979;28;20033;-90
2023/08/29 10:33:10;;;;;;;0.20;0.20;;;;;;;29.23;50.23;100093.28;4976110;28;20523;-92
2023/08/29 10:35:35;;;;;;;0.20;0.20;;;;;;;29.40;47.96;100086.47;4961072;28;20030;-91
2023/08/29 10:38:01;;;;;;;0.20;0.20;;;;;;;29.52;48.90;100087.47;4960343;28;20026;-86
2023/08/29 10:40:36;;;;;;;0.20;0.20;;;;;;;29.58;46.39;100083.94;4975541;28;20435;-86
2023/08/29 10:43:02;;;;;;;0.20;0.20;;;;;;;29.18;46.02;100061.09;4976186;28;20505;-90
2023/08/29 10:45:51;;;;;;;0.20;0.20;;;;;;;29.49;45.97;100079.06;4982163;28;20129;-88
2023/08/29 10:48:17;;;;;;;0.20;0.20;;;;;;;30.01;45.71;100066.50;4950492;28;20254;-89
2023/08/29 10:50:48;;;;;;;0.20;0.20;;;;;;;30.12;44.63;100058.63;4956874;28;20528;-92
2023/08/29 10:53:20;;;;;;;0.20;0.20;;;;;;;30.16;43.97;100064.34;4992000;28;20029;-93
2023/08/29 10:55:59;;;;;;;0.20;0.20;;;;;;;30.38;45.26;100076.28;4984690;28;20035;-91
2023/08/29 10:58:36;;;;;;;0.20;0.20;;;;;;;30.38;44.53;100073.63;4974615;28;20069;-92
2023/08/29 11:01:01;;;;;;;0.20;0.20;;;;;;;30.70;43.09;100073.59;4966158;28;20034;-96
2023/08/29 11:03:48;;;;;;;0.20;0.20;;;;;;;31.10;42.13;100072.16;4989387;28;20114;-94
2023/08/29 11:06:15;;;;;;;0.20;0.20;;;;;;;31.11;41.47;100057.75;4970057;28;20089;-91
2023/08/29 11:08:41;;;;;;;0.20;0.20;;;;;;;31.27;41.16;100051.03;4992249;28;20169;-91
2023/08/29 11:11:09;;;;;;;0.20;0.20;;;;;;;31.04;40.77;100061.53;4965122;28;20026;-94
2023/08/29 11:13:35;;;;;;;0.20;0.20;;;;;;;30.93;41.80;100055.06;4985774;28;20027;-93
2023/08/29 11:16:00;;;;;;;0.20;0.20;;;;;;;30.89;41.74;100064.56;4976554;28;20038;-92
2023/08/29 11:18:30;;;;;;;0.20;0.20;;;;;;;30.33;44.30;100054.78;4989906;28;20061;-93
2023/08/29 11:20:56;;;;;;;0.20;0.20;;;;;;;30.53;43.63;100058.09;4966984;28;20081;-92